Airfield :
LOGIN :

Register | Disclaimer

   EN    FR    IT 

 










Legend :    VFR   Marginal VFR   IFR   Intensive IFR   Very Intensive IFR
Visi :
Ceiling :
>= 8 km
>= 3000ft
5 to 8 km
1000 to 3000 ft
1500m to 5 km
500 to 1000 ft
800 to 1500m
200 to 500 ft
< 800m
< 200 ft
Symbols :   Thunderstorms  Fog  Heavy snow  Heavy precipitations  Wind > 20 kt
SIGMETs :     Misc.  Thunderstorms  Icing  Turbulence  Mountain Waves  Volcanic Ashes







- Airport Elevation : 1249 ft


ETSN - Neuburg AB

CURRENT METAR :
  • 141420Z 22013KT 9999 FEW032 BKN220 04/M01 Q1001 BLU+

EXPIRED METARs :
  • 141320Z 23016KT 9999 FEW032 BKN220 05/M01 Q1001 BLU+
  • 141220Z 21016KT 9999 FEW032 SCT250 05/M01 Q1002 BLU+FCST CANCEL

TAF TAF ETSN
Valid from the 14 at 15:00 until the 15 at 00:00 UTC


141414Z 1415/1424 23012G25KT 9999 NSW FEW020 SCT200
TEMPO 1415/1419 24018G30KT 8000 NSW SCT020 BKN035
BECMG 1419/1421 22010KT 7000 -RA SCT015 BKN030
TEMPO 1420/1424 22012G25KT 4000 RASN BKN008 BKN020 BY ETGL
No reported NOTAMs for that airfield.



MET'MAP, your aeronautical weather chart ! - Copyright ORBIFLY December 2007 - Disclaimer

ORBIFLY MET'MAP TEAM :

Programming & Development : Alexandra Zaïnal
Concept & Development : Baudouin d'Aumeries
Co-Development & Prog : Marc-Olivier Méhu
Technical & hardware support : Manuel Goepfert

Contact : metmap@orbifly.com




SOURCES & CREDITS :

   NOAA